Ross, North Dakota
Current Conditions -  °F | °C
As of 5:55 AM on Friday 28 Nov 2014 (Local Time) from K08D Reporting Station
Light Snow Light Snow  
Wind Chill: -6°   Ceiling: 800
Heat Index:   Visibility: 10mi
Dew Point:   Wind: 12mph
Humidity: 100%   Direction: 100°E
Pressure: 29.76"   Gusts: NA
Location:  48.31°N, 102.55°W
Report Text: K08D 281155Z AUTO 10010KT 10SM -SN OVC008 M13/M13 A2976 RMK AO2
Loading
Personal Weather Stations






























Interactive Weather Map New forecast layout! Learn more

10-Day Weather Forecast

Advertisements
Track Severe Weather on mobile